createdAt,value
2023-05-18T00:01:02.908Z,20.92
2023-05-18T00:03:29.527Z,20.93
2023-05-18T00:06:06.239Z,20.93
2023-05-18T00:08:33.801Z,20.93
2023-05-18T00:11:00.692Z,20.92
2023-05-18T00:13:26.342Z,20.93
2023-05-18T00:15:52.032Z,20.93
2023-05-18T00:18:17.728Z,20.91
2023-05-18T00:20:43.409Z,20.93
2023-05-18T00:23:15.587Z,20.92
2023-05-18T00:25:41.604Z,20.93
2023-05-18T00:28:07.401Z,20.92
2023-05-18T00:30:33.047Z,20.93
2023-05-18T00:32:58.728Z,20.93
2023-05-18T00:35:24.371Z,20.92
2023-05-18T00:37:50.027Z,20.94
2023-05-18T00:40:15.956Z,20.94
2023-05-18T00:42:41.636Z,20.93
2023-05-18T00:45:07.527Z,20.93
2023-05-18T00:47:33.219Z,20.94
2023-05-18T00:49:58.890Z,20.94
2023-05-18T00:52:24.999Z,20.94
2023-05-18T00:54:50.814Z,20.93
2023-05-18T00:57:18.240Z,20.93
2023-05-18T00:59:45.895Z,20.93
2023-05-18T01:02:13.916Z,20.93
2023-05-18T01:04:40.600Z,20.93
2023-05-18T01:07:07.090Z,20.94
2023-05-18T01:09:33.891Z,20.94
2023-05-18T01:12:05.607Z,20.93
2023-05-18T01:14:54.864Z,20.97
2023-05-18T01:17:28.889Z,20.95
2023-05-18T01:22:48.564Z,20.99
2023-05-18T01:25:22.836Z,20.98
2023-05-18T01:27:50.413Z,20.97
2023-05-18T01:30:17.265Z,20.96
2023-05-18T01:32:46.034Z,20.95
2023-05-18T01:35:11.886Z,20.97
2023-05-18T01:37:37.546Z,20.98
2023-05-18T01:40:04.976Z,20.95
2023-05-18T01:42:33.926Z,20.94
2023-05-18T01:45:06.322Z,20.94
2023-05-18T01:47:32.673Z,20.95
2023-05-18T01:50:03.536Z,20.97
2023-05-18T01:52:32.707Z,20.96
2023-05-18T01:55:02.611Z,20.96
2023-05-18T01:57:30.854Z,20.98
2023-05-18T01:59:59.174Z,20.98
2023-05-18T02:02:25.609Z,20.96
2023-05-18T02:04:51.542Z,20.97
2023-05-18T02:07:17.217Z,20.97
2023-05-18T02:09:43.582Z,21.01
2023-05-18T02:12:09.857Z,20.98
2023-05-18T02:14:35.582Z,20.98
2023-05-18T02:17:01.302Z,20.96
2023-05-18T02:19:27.088Z,20.95
2023-05-18T02:21:52.773Z,20.96
2023-05-18T02:24:18.434Z,20.98
2023-05-18T02:26:44.095Z,20.97
2023-05-18T02:29:11.019Z,20.97
2023-05-18T02:31:37.358Z,20.98
2023-05-18T02:34:03.344Z,20.96
2023-05-18T02:36:36.154Z,20.96
2023-05-18T02:39:03.917Z,20.99
2023-05-18T02:41:30.036Z,20.99
2023-05-18T02:43:55.744Z,20.98
2023-05-18T02:46:21.429Z,20.97
2023-05-18T02:48:47.161Z,20.99
2023-05-18T02:51:13.021Z,21.01
2023-05-18T02:53:39.121Z,21.00
2023-05-18T02:56:07.820Z,20.98
2023-05-18T02:58:33.469Z,20.99
2023-05-18T03:00:59.583Z,20.99
2023-05-18T03:03:25.354Z,20.99
2023-05-18T03:05:52.064Z,20.96
2023-05-18T03:08:19.614Z,20.99
2023-05-18T03:10:45.280Z,20.99
2023-05-18T03:13:10.951Z,21.00
2023-05-18T03:15:36.920Z,21.00
2023-05-18T03:18:03.128Z,20.99
2023-05-18T03:20:30.792Z,20.99
2023-05-18T03:22:56.930Z,20.99
2023-05-18T03:25:24.812Z,21.01
2023-05-18T03:27:52.019Z,21.00
2023-05-18T03:30:18.980Z,20.99
2023-05-18T03:32:46.602Z,21.00
2023-05-18T03:35:12.942Z,21.00
2023-05-18T03:37:38.690Z,21.00
2023-05-18T03:40:10.217Z,20.99
2023-05-18T03:42:36.146Z,21.00
2023-05-18T03:45:01.893Z,21.00
2023-05-18T03:47:29.058Z,21.00
2023-05-18T03:49:54.828Z,21.01
2023-05-18T03:52:21.546Z,21.01
2023-05-18T03:54:48.850Z,21.03
2023-05-18T03:57:15.793Z,21.00
2023-05-18T03:59:41.998Z,21.00
2023-05-18T04:02:07.995Z,21.00
2023-05-18T04:04:33.661Z,21.01
2023-05-18T04:07:01.479Z,21.03
2023-05-18T04:09:28.425Z,21.04
2023-05-18T04:11:54.651Z,21.02
2023-05-18T04:14:20.291Z,21.01
2023-05-18T04:16:46.626Z,21.02
2023-05-18T04:19:12.953Z,21.02
2023-05-18T04:21:42.718Z,21.03
2023-05-18T04:24:08.828Z,21.03
2023-05-18T04:26:35.738Z,21.00
2023-05-18T04:29:02.470Z,21.01
2023-05-18T04:31:28.773Z,21.01
2023-05-18T04:33:56.609Z,21.03
2023-05-18T04:36:24.930Z,21.02
2023-05-18T04:38:51.957Z,21.02
2023-05-18T04:41:19.696Z,21.01
2023-05-18T04:43:46.476Z,21.00
2023-05-18T04:46:13.148Z,21.00
2023-05-18T04:48:39.000Z,21.02
2023-05-18T04:51:05.347Z,21.03
2023-05-18T04:53:32.634Z,21.03
2023-05-18T04:56:00.022Z,21.02
2023-05-18T04:58:28.182Z,21.02
2023-05-18T05:00:55.223Z,21.02
2023-05-18T05:03:21.000Z,21.03
2023-05-18T05:05:46.707Z,21.02
2023-05-18T05:08:12.385Z,21.01
2023-05-18T05:10:38.035Z,21.01
2023-05-18T05:13:03.702Z,21.01
2023-05-18T05:15:29.673Z,21.01
2023-05-18T05:17:57.263Z,21.02
2023-05-18T05:20:23.020Z,21.02
2023-05-18T05:22:48.715Z,21.03
2023-05-18T05:25:14.807Z,21.03
2023-05-18T05:27:40.460Z,21.03
2023-05-18T05:30:06.790Z,21.03
2023-05-18T05:32:32.522Z,21.03
2023-05-18T05:34:58.198Z,21.02
2023-05-18T05:37:23.857Z,21.03
2023-05-18T05:39:49.531Z,21.03
2023-05-18T05:42:15.227Z,21.04
2023-05-18T05:44:40.878Z,21.03
2023-05-18T05:47:07.224Z,21.05
2023-05-18T05:49:33.583Z,21.02
2023-05-18T05:51:59.754Z,21.02
2023-05-18T05:54:25.496Z,21.02
2023-05-18T05:56:51.217Z,21.03
2023-05-18T05:59:16.876Z,21.02
2023-05-18T06:01:42.578Z,21.04
2023-05-18T06:04:09.884Z,21.03
2023-05-18T06:06:37.449Z,21.05
2023-05-18T06:09:03.753Z,21.03
2023-05-18T06:11:29.814Z,21.07
2023-05-18T06:13:55.480Z,21.04
2023-05-18T06:16:21.195Z,21.02
2023-05-18T06:18:48.100Z,21.02
2023-05-18T06:21:15.069Z,21.02
2023-05-18T06:23:42.157Z,21.04
2023-05-18T06:26:07.883Z,21.04
2023-05-18T06:28:33.531Z,21.04
2023-05-18T06:30:59.207Z,21.03
2023-05-18T06:33:25.620Z,21.02
2023-05-18T06:35:51.275Z,21.05
2023-05-18T06:38:17.223Z,21.04
2023-05-18T06:40:42.872Z,21.04
2023-05-18T06:43:08.551Z,21.04
2023-05-18T06:45:36.850Z,21.05
2023-05-18T06:48:03.526Z,21.04
2023-05-18T06:50:29.273Z,21.05
2023-05-18T06:52:55.063Z,21.06
2023-05-18T06:55:20.759Z,21.05
2023-05-18T06:57:46.404Z,21.05
2023-05-18T07:00:12.371Z,21.05
2023-05-18T07:02:38.958Z,21.06
2023-05-18T07:05:08.259Z,21.04
2023-05-18T07:07:35.653Z,21.05
2023-05-18T07:10:03.004Z,21.09
2023-05-18T07:12:28.652Z,21.08
2023-05-18T07:14:54.289Z,21.05
2023-05-18T07:17:19.977Z,21.06
2023-05-18T07:19:45.657Z,21.07
2023-05-18T07:22:11.326Z,21.04
2023-05-18T07:24:36.978Z,21.05
2023-05-18T07:27:02.867Z,21.07
2023-05-18T07:29:29.337Z,21.04
2023-05-18T07:31:55.214Z,21.05
2023-05-18T07:34:20.922Z,21.09
2023-05-18T07:36:46.586Z,21.06
2023-05-18T07:39:19.286Z,21.05
2023-05-18T07:41:46.396Z,21.05
2023-05-18T07:44:12.962Z,21.07
2023-05-18T07:46:38.707Z,21.06
2023-05-18T07:49:04.425Z,21.08
2023-05-18T07:51:30.787Z,21.08
2023-05-18T07:53:57.145Z,21.05
2023-05-18T07:56:23.388Z,21.07
2023-05-18T07:58:49.264Z,21.10
2023-05-18T08:01:15.241Z,21.06
2023-05-18T08:03:40.935Z,21.10
2023-05-18T08:06:06.668Z,21.06
2023-05-18T08:08:32.336Z,21.07
2023-05-18T08:10:58.418Z,21.08
2023-05-18T08:13:24.069Z,21.09
2023-05-18T08:15:59.320Z,21.12
2023-05-18T08:18:35.350Z,21.12
2023-05-18T08:21:03.270Z,21.10
2023-05-18T08:23:29.056Z,21.10
2023-05-18T08:25:55.992Z,21.07
2023-05-18T08:28:22.423Z,21.07
2023-05-18T08:30:48.068Z,21.08
2023-05-18T08:33:13.805Z,21.11
2023-05-18T08:35:39.564Z,21.10
2023-05-18T08:38:05.859Z,21.10
2023-05-18T08:40:37.071Z,21.07
2023-05-18T08:43:09.071Z,21.10
2023-05-18T08:45:41.767Z,21.10
2023-05-18T08:48:07.504Z,21.11
2023-05-18T08:50:34.169Z,21.10
2023-05-18T08:53:01.515Z,21.13
2023-05-18T08:55:28.660Z,21.11
2023-05-18T08:57:55.431Z,21.11
2023-05-18T09:00:24.238Z,21.12
2023-05-18T09:02:50.357Z,21.11
2023-05-18T09:05:16.449Z,21.11
2023-05-18T09:07:42.842Z,21.09
2023-05-18T09:10:10.916Z,21.11
2023-05-18T09:12:37.353Z,21.11
2023-05-18T09:15:03.242Z,21.12
2023-05-18T09:17:28.918Z,21.10
2023-05-18T09:19:55.082Z,21.11
2023-05-18T09:22:20.739Z,21.12
2023-05-18T09:24:48.202Z,21.10
2023-05-18T09:27:13.884Z,21.12
2023-05-18T09:29:55.827Z,21.10
2023-05-18T09:32:22.351Z,21.13
2023-05-18T09:34:48.815Z,21.11
2023-05-18T09:37:18.324Z,21.12
2023-05-18T09:39:44.726Z,21.11
2023-05-18T09:42:11.364Z,21.11
2023-05-18T09:44:37.075Z,21.11
2023-05-18T09:47:07.568Z,21.13
2023-05-18T09:49:33.298Z,21.12
2023-05-18T09:51:59.986Z,21.11
2023-05-18T09:54:25.788Z,21.12
2023-05-18T09:57:02.425Z,21.10
2023-05-18T09:59:35.799Z,21.12
2023-05-18T10:02:05.124Z,21.13
2023-05-18T10:04:39.483Z,21.12
2023-05-18T10:07:10.860Z,21.10
2023-05-18T10:09:36.589Z,21.14
2023-05-18T10:12:02.266Z,21.13
2023-05-18T10:14:35.530Z,21.11
2023-05-18T10:17:14.982Z,21.10
2023-05-18T10:19:42.474Z,21.11
2023-05-18T10:22:09.155Z,21.12
2023-05-18T10:24:39.228Z,21.13
2023-05-18T10:27:08.319Z,21.13
2023-05-18T10:29:35.834Z,21.14
2023-05-18T10:32:05.225Z,21.12
2023-05-18T10:34:32.795Z,21.14
2023-05-18T10:37:00.548Z,21.12
2023-05-18T10:39:26.560Z,21.10
2023-05-18T10:41:55.204Z,21.14
2023-05-18T10:44:23.566Z,21.14
2023-05-18T10:46:49.597Z,21.13
2023-05-18T10:49:17.029Z,21.11
2023-05-18T10:51:43.949Z,21.12
2023-05-18T10:54:12.875Z,21.12
2023-05-18T10:56:42.256Z,21.12
2023-05-18T10:59:07.951Z,21.12
2023-05-18T11:01:34.086Z,21.11
2023-05-18T11:04:03.369Z,21.11
2023-05-18T11:06:29.034Z,21.14
2023-05-18T11:08:54.693Z,21.13
2023-05-18T11:11:23.377Z,21.09
2023-05-18T11:13:50.490Z,21.12
2023-05-18T11:16:17.565Z,21.13
2023-05-18T11:18:45.373Z,21.12
2023-05-18T11:21:19.758Z,21.12
2023-05-18T11:24:16.376Z,21.12
2023-05-18T11:26:44.135Z,21.13
2023-05-18T11:29:39.740Z,21.14
2023-05-18T11:32:29.170Z,21.14
2023-05-18T11:34:56.403Z,21.10
2023-05-18T11:40:47.581Z,21.14
2023-05-18T11:43:28.995Z,21.13
2023-05-18T11:45:58.730Z,21.12
2023-05-18T11:48:26.460Z,21.16
2023-05-18T11:50:54.034Z,21.12
2023-05-18T11:53:23.177Z,21.13
2023-05-18T11:55:51.770Z,21.13
2023-05-18T11:58:19.680Z,21.16
2023-05-18T12:00:46.826Z,21.14
2023-05-18T12:03:13.048Z,21.15
2023-05-18T12:05:41.204Z,21.15
2023-05-18T12:08:08.274Z,21.13
2023-05-18T12:10:35.965Z,21.15
2023-05-18T12:13:01.776Z,21.13
2023-05-18T12:15:28.127Z,21.14
2023-05-18T12:17:53.855Z,21.15
2023-05-18T12:20:21.486Z,21.15
2023-05-18T12:22:51.069Z,21.14
2023-05-18T12:25:17.214Z,21.14
2023-05-18T12:27:43.917Z,21.16
2023-05-18T12:30:11.448Z,21.16
2023-05-18T12:32:37.418Z,21.16
2023-05-18T12:35:05.059Z,21.17
2023-05-18T12:37:41.742Z,21.17
2023-05-18T12:40:12.342Z,21.15
2023-05-18T12:42:38.011Z,21.15
2023-05-18T12:45:06.343Z,21.15
2023-05-18T12:47:33.160Z,21.19
2023-05-18T12:50:02.548Z,21.18
2023-05-18T12:52:28.176Z,21.16
2023-05-18T12:54:57.694Z,21.14
2023-05-18T12:57:25.657Z,21.15
2023-05-18T12:59:53.270Z,21.17
2023-05-18T13:02:38.928Z,21.17
2023-05-18T13:05:09.441Z,21.17
2023-05-18T13:07:37.192Z,21.17
2023-05-18T13:10:08.299Z,21.18
2023-05-18T13:12:51.509Z,21.18
2023-05-18T13:15:20.009Z,21.16
2023-05-18T13:18:02.138Z,21.17
2023-05-18T13:20:31.867Z,21.18
2023-05-18T13:23:01.120Z,21.16
2023-05-18T13:25:26.922Z,21.17
2023-05-18T13:27:54.115Z,21.14
2023-05-18T13:30:21.086Z,21.17
2023-05-18T13:32:46.807Z,21.18
2023-05-18T13:35:12.677Z,21.16
2023-05-18T13:37:39.245Z,21.19
2023-05-18T13:40:05.748Z,21.19
2023-05-18T13:42:32.016Z,21.16
2023-05-18T13:44:57.673Z,21.17
2023-05-18T13:47:23.310Z,21.17
2023-05-18T13:49:48.949Z,21.19
2023-05-18T13:52:14.590Z,21.18
2023-05-18T13:54:40.236Z,21.19
2023-05-18T13:57:07.111Z,21.18
2023-05-18T13:59:33.730Z,21.18
2023-05-18T14:02:00.681Z,21.19
2023-05-18T14:04:26.760Z,21.18
2023-05-18T14:06:53.427Z,21.21
2023-05-18T14:09:19.227Z,21.18
2023-05-18T14:11:44.889Z,21.18
2023-05-18T14:14:10.534Z,21.21
2023-05-18T14:16:36.222Z,21.19
2023-05-18T14:19:02.462Z,21.18
2023-05-18T14:21:28.246Z,21.18
2023-05-18T14:23:53.886Z,21.19
2023-05-18T14:26:19.550Z,21.21
2023-05-18T14:28:45.528Z,21.22
2023-05-18T14:31:11.249Z,21.21
2023-05-18T14:33:36.936Z,21.17
2023-05-18T14:36:02.648Z,21.22
2023-05-18T14:38:28.282Z,21.21
2023-05-18T14:40:53.944Z,21.22
2023-05-18T14:43:19.796Z,21.21
2023-05-18T14:45:50.570Z,21.22
2023-05-18T14:48:19.158Z,21.21
2023-05-18T14:50:44.801Z,21.22
2023-05-18T14:53:10.442Z,21.22
2023-05-18T14:55:36.123Z,21.23
2023-05-18T14:58:03.711Z,21.20
2023-05-18T15:00:29.506Z,21.21
2023-05-18T15:02:55.857Z,21.22
2023-05-18T15:05:21.529Z,21.22
2023-05-18T15:07:47.176Z,21.23
2023-05-18T15:10:12.844Z,21.22
2023-05-18T15:12:38.489Z,21.21
2023-05-18T15:15:04.966Z,21.23
2023-05-18T15:17:30.729Z,21.22
2023-05-18T15:19:56.408Z,21.22
2023-05-18T15:22:22.284Z,21.19
2023-05-18T15:24:48.001Z,21.21
2023-05-18T15:27:13.704Z,21.23
2023-05-18T15:29:39.413Z,21.23
2023-05-18T15:32:05.619Z,21.22
2023-05-18T15:34:32.650Z,21.20
2023-05-18T15:36:59.883Z,21.21
2023-05-18T15:39:25.554Z,21.24
2023-05-18T15:41:51.205Z,21.23
2023-05-18T15:44:16.837Z,21.21
2023-05-18T15:46:42.798Z,21.23
2023-05-18T15:49:08.433Z,21.23
2023-05-18T15:51:34.084Z,21.23
2023-05-18T15:54:00.729Z,21.23
2023-05-18T15:56:26.517Z,21.25
2023-05-18T15:58:52.160Z,21.25
2023-05-18T16:01:17.870Z,21.25
2023-05-18T16:03:43.925Z,21.25
2023-05-18T16:06:09.656Z,21.25
2023-05-18T16:08:35.324Z,21.25
2023-05-18T16:11:01.464Z,21.23
2023-05-18T16:13:27.313Z,21.24
2023-05-18T16:15:52.953Z,21.23
2023-05-18T16:18:18.608Z,21.25
2023-05-18T16:20:44.255Z,21.25
2023-05-18T16:23:09.897Z,21.25
2023-05-18T16:25:35.590Z,21.24
2023-05-18T16:28:01.238Z,21.24
2023-05-18T16:30:26.879Z,21.22
2023-05-18T16:32:52.564Z,21.23
2023-05-18T16:35:18.288Z,21.26
2023-05-18T16:37:44.066Z,21.26
2023-05-18T16:40:10.169Z,21.27
2023-05-18T16:42:35.847Z,21.26
2023-05-18T16:45:01.667Z,21.26
2023-05-18T16:47:27.762Z,21.23
2023-05-18T16:49:53.750Z,21.23
2023-05-18T16:52:20.567Z,21.25
2023-05-18T16:54:46.337Z,21.23
2023-05-18T16:57:13.168Z,21.25
2023-05-18T16:59:39.043Z,21.26
2023-05-18T17:02:04.972Z,21.26
2023-05-18T17:04:30.628Z,21.25
2023-05-18T17:06:56.785Z,21.25
2023-05-18T17:09:22.473Z,21.24
2023-05-18T17:11:48.141Z,21.26
2023-05-18T17:14:13.826Z,21.26
2023-05-18T17:16:40.392Z,21.27
2023-05-18T17:19:07.030Z,21.27
2023-05-18T17:21:32.844Z,21.29
2023-05-18T17:23:58.600Z,21.28
2023-05-18T17:26:25.039Z,21.27
2023-05-18T17:28:50.840Z,21.27
2023-05-18T17:31:17.051Z,21.26
2023-05-18T17:33:46.319Z,21.26
2023-05-18T17:36:14.887Z,21.25
2023-05-18T17:38:40.536Z,21.27
2023-05-18T17:41:06.479Z,21.26
2023-05-18T17:43:32.137Z,21.25
2023-05-18T17:45:57.771Z,21.24
2023-05-18T17:48:23.439Z,21.25
2023-05-18T17:50:51.189Z,21.24
2023-05-18T17:53:16.995Z,21.28
2023-05-18T17:55:42.829Z,21.27
2023-05-18T17:58:08.479Z,21.26
2023-05-18T18:00:34.346Z,21.27
2023-05-18T18:03:00.415Z,21.27
2023-05-18T18:05:26.240Z,21.27
2023-05-18T18:07:53.179Z,21.26
2023-05-18T18:10:19.896Z,21.26
2023-05-18T18:12:45.574Z,21.26
2023-05-18T18:15:11.382Z,21.26
2023-05-18T18:17:37.090Z,21.26
2023-05-18T18:20:04.806Z,21.27
2023-05-18T18:22:30.457Z,21.25
2023-05-18T18:24:56.107Z,21.23
2023-05-18T18:27:21.754Z,21.25
2023-05-18T18:29:48.310Z,21.26
2023-05-18T18:32:14.047Z,21.27
2023-05-18T18:34:39.755Z,21.27
2023-05-18T18:37:05.838Z,21.27
2023-05-18T18:39:31.509Z,21.26
2023-05-18T18:41:57.531Z,21.26
2023-05-18T18:44:23.191Z,21.27
2023-05-18T18:46:48.929Z,21.27
2023-05-18T18:49:14.635Z,21.26
2023-05-18T18:51:40.294Z,21.25
2023-05-18T18:54:05.938Z,21.26
2023-05-18T18:56:31.626Z,21.25
2023-05-18T18:58:57.289Z,21.25
2023-05-18T19:01:23.040Z,21.26
2023-05-18T19:03:48.737Z,21.26
2023-05-18T19:06:16.528Z,21.27
2023-05-18T19:08:42.252Z,21.26
2023-05-18T19:11:07.924Z,21.26
2023-05-18T19:13:33.626Z,21.26
2023-05-18T19:15:59.485Z,21.26
2023-05-18T19:18:25.338Z,21.26
2023-05-18T19:20:51.081Z,21.27
2023-05-18T19:23:16.859Z,21.27
2023-05-18T19:25:42.559Z,21.26
2023-05-18T19:28:08.223Z,21.27
2023-05-18T19:30:34.139Z,21.28
2023-05-18T19:32:59.873Z,21.25
2023-05-18T19:35:25.546Z,21.27
2023-05-18T19:37:51.383Z,21.27
2023-05-18T19:40:17.069Z,21.27
2023-05-18T19:42:43.005Z,21.28
2023-05-18T19:45:08.696Z,21.28
2023-05-18T19:47:34.935Z,21.29
2023-05-18T19:50:00.597Z,21.27
2023-05-18T19:52:26.252Z,21.27
2023-05-18T19:54:51.998Z,21.25
2023-05-18T19:57:18.854Z,21.26
2023-05-18T19:59:44.609Z,21.29
2023-05-18T20:02:10.284Z,21.27
2023-05-18T20:04:35.944Z,21.27
2023-05-18T20:07:01.602Z,21.27
2023-05-18T20:09:27.934Z,21.26
2023-05-18T20:11:55.156Z,21.29
2023-05-18T20:14:21.609Z,21.29
2023-05-18T20:16:47.808Z,21.28
2023-05-18T20:19:16.816Z,21.29
2023-05-18T20:21:43.333Z,21.27
2023-05-18T20:24:08.995Z,21.26
2023-05-18T20:26:34.967Z,21.28
2023-05-18T20:29:00.655Z,21.27
2023-05-18T20:31:26.370Z,21.28
2023-05-18T20:33:56.057Z,21.28
2023-05-18T20:36:21.749Z,21.29
2023-05-18T20:38:48.660Z,21.30
2023-05-18T20:41:16.886Z,21.29
2023-05-18T20:43:44.435Z,21.27
2023-05-18T20:46:12.626Z,21.29
2023-05-18T20:48:38.953Z,21.29
2023-05-18T20:51:07.638Z,21.28
2023-05-18T20:53:33.300Z,21.29
2023-05-18T20:56:00.349Z,21.29
2023-05-18T20:58:26.171Z,21.28
2023-05-18T21:00:54.634Z,21.29
2023-05-18T21:03:21.502Z,21.29
2023-05-18T21:05:48.997Z,21.29
2023-05-18T21:08:15.255Z,21.29
2023-05-18T21:10:41.014Z,21.29
2023-05-18T21:13:06.681Z,21.30
2023-05-18T21:15:35.661Z,21.30
2023-05-18T21:18:02.438Z,21.28
2023-05-18T21:20:28.497Z,21.27
2023-05-18T21:22:54.186Z,21.27
2023-05-18T21:25:19.987Z,21.30
2023-05-18T21:27:45.636Z,21.30
2023-05-18T21:30:12.403Z,21.29
2023-05-18T21:32:39.650Z,21.28
2023-05-18T21:35:05.508Z,21.29
2023-05-18T21:37:31.147Z,21.26
2023-05-18T21:39:56.791Z,21.27
2023-05-18T21:42:22.444Z,21.30
2023-05-18T21:44:48.089Z,21.29
2023-05-18T21:47:13.739Z,21.30
2023-05-18T21:49:39.399Z,21.29
2023-05-18T21:52:05.165Z,21.29
2023-05-18T21:54:33.004Z,21.28
2023-05-18T21:56:58.859Z,21.26
2023-05-18T21:59:24.533Z,21.28
2023-05-18T22:01:50.259Z,21.27
2023-05-18T22:04:16.201Z,21.29
2023-05-18T22:06:41.897Z,21.30
2023-05-18T22:09:07.763Z,21.28
2023-05-18T22:11:33.411Z,21.30
2023-05-18T22:13:59.717Z,21.30
2023-05-18T22:16:25.376Z,21.29
2023-05-18T22:18:51.092Z,21.30
2023-05-18T22:21:16.777Z,21.30
2023-05-18T22:23:42.435Z,21.29
2023-05-18T22:26:08.345Z,21.28
2023-05-18T22:28:34.042Z,21.27
2023-05-18T22:30:59.698Z,21.29
2023-05-18T22:33:25.386Z,21.30
2023-05-18T22:35:51.051Z,21.31
2023-05-18T22:38:16.941Z,21.31
2023-05-18T22:40:44.198Z,21.30
2023-05-18T22:43:10.191Z,21.30
2023-05-18T22:45:35.869Z,21.31
2023-05-18T22:48:01.642Z,21.30
2023-05-18T22:50:27.904Z,21.30
2023-05-18T22:52:53.963Z,21.30
2023-05-18T22:55:19.674Z,21.29
2023-05-18T22:57:45.471Z,21.30
2023-05-18T23:00:13.204Z,21.30
2023-05-18T23:02:40.142Z,21.29
2023-05-18T23:05:06.313Z,21.31
2023-05-18T23:07:35.323Z,21.30
2023-05-18T23:10:04.292Z,21.33
2023-05-18T23:12:30.631Z,21.30
2023-05-18T23:14:56.391Z,21.32
2023-05-18T23:17:22.204Z,21.32
2023-05-18T23:19:49.587Z,21.31
2023-05-18T23:22:16.277Z,21.31
2023-05-18T23:24:42.588Z,21.29
2023-05-18T23:27:09.458Z,21.29
2023-05-18T23:29:35.178Z,21.28
2023-05-18T23:32:01.973Z,21.29
2023-05-18T23:34:27.953Z,21.32
2023-05-18T23:36:53.692Z,21.32
2023-05-18T23:39:21.008Z,21.32
2023-05-18T23:41:47.522Z,21.29
2023-05-18T23:44:13.442Z,21.28
2023-05-18T23:46:39.381Z,21.31
2023-05-18T23:49:05.214Z,21.32
2023-05-18T23:51:35.350Z,21.30
2023-05-18T23:54:02.897Z,21.30
2023-05-18T23:56:28.786Z,21.33
2023-05-18T23:58:54.623Z,21.29
